Decoded Metar for PAWD (SEWARD in AK, USA) (IATA:SWD) | Meteo·Mobile Aviation Weather
aviador You're here:

PAWD Decoded Metar

SEWARD in AK, USA
Report Time2018-11-19 02:53:00
UTC Time2018-11-19 03:04:56
Flight Rules vfr VFR
WindCalm
Visibility9999 m
Phenomena:Light Rain
Clouds:Broken 050 Hf
Overcast 065 Hf
Ceiling5,000 ft
Temp06°C (ISA -9)
Dew Point06°C (100% RH)
AAT5.1°C
QNH996 hPa
Density Alt-282 ft
Elevation75 ft
Report Wrong Elevation
Raw Report
PAWD 190253Z AUTO 00000KT 10SM -RA BKN050 OVC065 06/06 A2942 RMK
AO2 SLP964 P0000 60004 T00560056 56013 TSNO $=

Extra information for PAWD:More info

Metar Taf Metar & Taf Last 4 Metars F.Rules Stats Wind Profile Meteogram Temp Stats Airport Information Weather charts Add Link Nearby VenuesMetar ALERT Operation Metar Decoded Social comments

AIRNAV info for PAWD